createdAt,value
2016-08-11T00:04:04.950Z,72.09
2016-08-11T00:09:02.527Z,72.00
2016-08-11T00:14:00.116Z,72.29
2016-08-11T00:18:57.716Z,72.00
2016-08-11T00:23:55.349Z,72.09
2016-08-11T00:28:53.018Z,72.00
2016-08-11T00:33:50.624Z,71.91
2016-08-11T00:38:48.293Z,72.00
2016-08-11T00:43:46.067Z,72.29
2016-08-11T00:48:43.677Z,72.09
2016-08-11T00:53:41.282Z,72.19
2016-08-11T00:58:39.083Z,71.71
2016-08-11T01:03:36.644Z,72.29
2016-08-11T01:08:34.223Z,71.77
2016-08-11T01:13:32.080Z,71.87
2016-08-11T01:18:29.710Z,71.58
2016-08-11T01:23:27.377Z,72.16
2016-08-11T01:33:22.655Z,71.77
2016-08-11T01:38:20.428Z,71.77
2016-08-11T01:43:17.951Z,71.67
2016-08-11T01:48:15.629Z,72.06
2016-08-11T01:53:13.250Z,71.67
2016-08-11T01:58:10.930Z,71.58
2016-08-11T02:03:08.549Z,71.48
2016-08-11T02:08:06.457Z,71.67
2016-08-11T02:13:04.098Z,71.67
2016-08-11T02:18:01.693Z,71.48
2016-08-11T02:23:00.239Z,71.06
2016-08-11T02:27:57.602Z,71.19
2016-08-11T02:32:55.360Z,70.90
2016-08-11T02:37:53.087Z,71.00
2016-08-11T02:42:50.886Z,71.00
2016-08-11T02:47:48.476Z,70.97
2016-08-11T02:52:46.094Z,71.06
2016-08-11T02:57:44.028Z,70.97
2016-08-11T03:02:41.651Z,71.45
2016-08-11T03:07:39.291Z,70.87
2016-08-11T03:12:36.955Z,71.16
2016-08-11T03:17:34.874Z,71.45
2016-08-11T03:22:32.510Z,70.87
2016-08-11T03:27:29.999Z,70.97
2016-08-11T03:32:27.730Z,70.97
2016-08-11T03:37:25.348Z,70.58
2016-08-11T03:42:23.058Z,70.97
2016-08-11T03:47:20.666Z,70.97
2016-08-11T03:52:18.251Z,71.06
2016-08-11T03:57:15.879Z,70.49
2016-08-11T04:02:13.486Z,71.16
2016-08-11T04:07:11.088Z,70.64
2016-08-11T04:12:08.823Z,71.16
2016-08-11T04:17:06.452Z,70.87
2016-08-11T04:22:03.955Z,70.97
2016-08-11T04:27:01.822Z,70.49
2016-08-11T04:31:59.542Z,70.01
2016-08-11T04:36:57.254Z,71.06
2016-08-11T04:41:54.912Z,71.25
2016-08-11T04:46:52.551Z,71.16
2016-08-11T04:51:50.321Z,70.68
2016-08-11T04:56:48.235Z,70.39
2016-08-11T05:01:45.870Z,70.68
2016-08-11T05:06:43.594Z,70.87
2016-08-11T05:11:41.435Z,71.16
2016-08-11T05:16:39.082Z,70.97
2016-08-11T05:21:36.820Z,70.97
2016-08-11T05:26:34.346Z,71.16
2016-08-11T05:31:32.047Z,71.16
2016-08-11T05:36:29.700Z,70.97
2016-08-11T05:41:27.641Z,70.58
2016-08-11T05:46:25.306Z,70.29
2016-08-11T05:51:22.862Z,70.58
2016-08-11T05:56:20.536Z,71.06
2016-08-11T06:01:18.701Z,70.62
2016-08-11T06:06:16.479Z,71.55
2016-08-11T06:11:14.351Z,71.93
2016-08-11T06:16:11.955Z,70.87
2016-08-11T06:21:09.769Z,70.23
2016-08-11T06:26:07.479Z,70.04
2016-08-11T06:31:05.321Z,70.33
2016-08-11T06:36:03.024Z,69.85
2016-08-11T06:41:00.743Z,69.79
2016-08-11T06:45:58.492Z,69.02
2016-08-11T06:50:56.272Z,69.69
2016-08-11T06:55:54.020Z,69.69
2016-08-11T07:00:51.751Z,70.07
2016-08-11T07:05:49.381Z,69.53
2016-08-11T07:10:47.262Z,68.86
2016-08-11T07:15:45.171Z,68.86
2016-08-11T07:20:42.918Z,68.76
2016-08-11T07:25:40.623Z,68.29
2016-08-11T07:30:38.643Z,68.48
2016-08-11T07:35:36.201Z,68.29
2016-08-11T07:40:34.047Z,68.19
2016-08-11T07:45:32.086Z,68.57
2016-08-11T07:50:29.811Z,67.65
2016-08-11T07:55:27.541Z,68.22
2016-08-11T08:00:25.226Z,68.13
2016-08-11T08:05:22.918Z,67.83
2016-08-11T08:10:20.594Z,67.74
2016-08-11T08:15:18.374Z,67.74
2016-08-11T08:20:16.043Z,67.83
2016-08-11T08:25:14.618Z,67.65
2016-08-11T08:30:12.410Z,67.55
2016-08-11T08:35:10.184Z,67.26
2016-08-11T08:40:07.632Z,67.07
2016-08-11T08:45:05.535Z,67.49
2016-08-11T08:50:03.284Z,67.00
2016-08-11T08:55:01.203Z,66.52
2016-08-11T08:59:58.998Z,66.24
2016-08-11T09:04:56.791Z,65.88
2016-08-11T09:09:54.510Z,65.50
2016-08-11T09:14:52.267Z,65.69
2016-08-11T09:19:50.072Z,64.92
2016-08-11T09:24:47.681Z,65.24
2016-08-11T09:29:45.611Z,65.24
2016-08-11T09:34:43.213Z,64.86
2016-08-11T09:39:41.264Z,65.24
2016-08-11T09:44:39.010Z,64.82
2016-08-11T09:49:36.783Z,64.82
2016-08-11T10:04:33.615Z,65.88
2016-08-11T10:09:31.319Z,65.69
2016-08-11T10:14:29.844Z,65.69
2016-08-11T10:19:27.372Z,65.59
2016-08-11T10:24:24.931Z,65.69
2016-08-11T10:29:22.718Z,65.59
2016-08-11T10:34:20.361Z,65.88
2016-08-11T10:39:17.895Z,65.50
2016-08-11T10:44:15.873Z,65.78
2016-08-11T10:49:13.568Z,65.69
2016-08-11T10:54:11.377Z,65.50
2016-08-11T10:59:09.075Z,65.69
2016-08-11T11:04:06.791Z,65.98
2016-08-11T11:09:04.472Z,65.30
2016-08-11T11:14:02.193Z,65.53
2016-08-11T11:18:59.756Z,65.53
2016-08-11T11:23:57.367Z,65.72
2016-08-11T11:28:55.104Z,65.53
2016-08-11T11:33:52.943Z,65.14
2016-08-11T11:38:50.505Z,64.86
2016-08-11T11:43:48.406Z,65.05
2016-08-11T11:48:46.041Z,65.05
2016-08-11T11:53:43.695Z,65.81
2016-08-11T11:58:41.324Z,65.72
2016-08-11T12:03:39.047Z,65.53
2016-08-11T12:08:37.174Z,65.43
2016-08-11T12:13:34.788Z,66.30
2016-08-11T12:18:32.336Z,66.30
2016-08-11T12:23:30.002Z,67.07
2016-08-11T12:28:27.713Z,66.49
2016-08-11T12:33:25.369Z,67.16
2016-08-11T12:38:23.123Z,67.16
2016-08-11T12:43:20.766Z,67.52
2016-08-11T12:48:18.398Z,68.29
2016-08-11T12:53:16.109Z,68.10
2016-08-11T12:58:13.808Z,67.71
2016-08-11T13:03:12.463Z,68.48
2016-08-11T13:08:10.040Z,68.58
2016-08-11T13:13:07.685Z,68.58
2016-08-11T13:18:05.273Z,68.77
2016-08-11T13:23:03.108Z,69.06
2016-08-11T13:28:00.831Z,69.06
2016-08-11T13:32:58.533Z,69.54
2016-08-11T13:37:56.792Z,69.73
2016-08-11T13:42:54.378Z,69.45
2016-08-11T13:47:52.178Z,69.35
2016-08-11T13:52:49.778Z,69.73
2016-08-11T13:57:47.461Z,69.54
2016-08-11T14:02:45.304Z,69.67
2016-08-11T14:07:43.005Z,70.41
2016-08-11T14:12:40.829Z,70.02
2016-08-11T14:17:38.343Z,70.50
2016-08-11T14:22:36.072Z,70.21
2016-08-11T14:27:33.789Z,70.41
2016-08-11T14:32:31.433Z,70.21
2016-08-11T14:37:29.083Z,70.21
2016-08-11T14:42:26.904Z,70.98
2016-08-11T14:47:24.631Z,73.20
2016-08-11T14:52:22.171Z,74.26
2016-08-11T14:57:19.837Z,74.45
2016-08-11T15:02:17.521Z,73.88
2016-08-11T15:07:15.278Z,73.49
2016-08-11T15:12:13.010Z,73.88
2016-08-11T15:17:10.661Z,74.36
2016-08-11T15:22:08.378Z,74.16
2016-08-11T15:27:06.174Z,74.10
2016-08-11T15:32:03.968Z,74.40
2016-08-11T15:37:01.597Z,74.74
2016-08-11T15:41:59.527Z,74.26
2016-08-11T15:46:57.127Z,74.65
2016-08-11T15:51:55.085Z,73.97
2016-08-11T15:56:52.812Z,76.48
2016-08-11T16:01:50.448Z,75.32
2016-08-11T16:06:48.293Z,75.86
2016-08-11T16:11:45.935Z,77.83
2016-08-11T16:16:43.677Z,78.17
2016-08-11T16:21:41.372Z,76.92
2016-08-11T16:26:39.113Z,76.92
2016-08-11T16:31:36.692Z,76.82
2016-08-11T16:36:34.285Z,76.44
2016-08-11T16:41:31.963Z,76.69
2016-08-11T16:46:29.609Z,77.17
2016-08-11T16:51:27.288Z,77.31
2016-08-11T16:56:25.239Z,77.50
2016-08-11T17:01:22.935Z,77.50
2016-08-11T17:06:21.564Z,77.40
2016-08-11T17:11:19.228Z,77.01
2016-08-11T17:21:14.275Z,76.15
2016-08-11T17:26:12.000Z,76.67
2016-08-11T17:31:09.702Z,76.34
2016-08-11T17:36:07.455Z,76.63
2016-08-11T17:41:05.272Z,75.96
2016-08-11T17:46:02.941Z,75.67
2016-08-11T17:51:00.877Z,76.09
2016-08-11T17:55:58.676Z,76.15
2016-08-11T18:00:56.579Z,75.99
2016-08-11T18:05:54.362Z,76.09
2016-08-11T18:10:51.908Z,75.90
2016-08-11T18:15:49.654Z,75.99
2016-08-11T18:20:47.436Z,76.63
2016-08-11T18:25:45.175Z,75.96
2016-08-11T18:30:43.023Z,76.38
2016-08-11T18:35:40.619Z,76.28
2016-08-11T18:40:38.230Z,75.80
2016-08-11T18:45:36.069Z,76.15
2016-08-11T18:50:33.755Z,76.76
2016-08-11T18:55:31.541Z,76.67
2016-08-11T19:00:29.096Z,77.25
2016-08-11T19:05:26.718Z,78.21
2016-08-11T19:10:24.470Z,78.31
2016-08-11T19:15:22.269Z,79.17
2016-08-11T19:20:20.012Z,80.91
2016-08-11T19:25:17.699Z,80.23
2016-08-11T19:30:15.483Z,81.96
2016-08-11T19:35:13.419Z,80.91
2016-08-11T19:40:11.213Z,81.29
2016-08-11T19:45:09.082Z,83.12
2016-08-11T19:50:06.849Z,81.43
2016-08-11T19:55:04.838Z,79.94
2016-08-11T20:00:02.661Z,79.36
2016-08-11T20:05:00.558Z,79.46
2016-08-11T20:09:58.451Z,78.73
2016-08-11T20:14:56.255Z,78.50
2016-08-11T20:19:53.884Z,78.44
2016-08-11T20:24:51.648Z,78.15
2016-08-11T20:29:49.283Z,77.76
2016-08-11T20:34:46.958Z,77.86
2016-08-11T20:39:44.963Z,78.15
2016-08-11T20:44:42.675Z,77.76
2016-08-11T20:49:40.441Z,77.38
2016-08-11T20:54:38.368Z,77.28
2016-08-11T20:59:36.071Z,77.25
2016-08-11T21:04:33.795Z,77.38
2016-08-11T21:09:31.435Z,77.92
2016-08-11T21:14:29.224Z,77.83
2016-08-11T21:19:26.990Z,77.63
2016-08-11T21:24:24.716Z,77.73
2016-08-11T21:29:22.452Z,78.02
2016-08-11T21:34:20.098Z,78.02
2016-08-11T21:39:17.857Z,77.63
2016-08-11T21:44:15.755Z,77.63
2016-08-11T21:49:13.413Z,78.21
2016-08-11T21:54:11.033Z,78.11
2016-08-11T21:59:08.767Z,78.21
2016-08-11T22:04:06.452Z,79.17
2016-08-11T22:09:04.413Z,78.69
2016-08-11T22:14:02.096Z,78.50
2016-08-11T22:18:59.991Z,79.17
2016-08-11T22:23:57.837Z,79.52
2016-08-11T22:28:55.675Z,79.61
2016-08-11T22:33:53.407Z,79.85
2016-08-11T22:38:50.917Z,79.94
2016-08-11T22:43:48.636Z,79.85
2016-08-11T22:48:46.311Z,80.14
2016-08-11T22:53:44.102Z,80.23
2016-08-11T22:58:41.670Z,80.10
2016-08-11T23:03:39.363Z,80.10
2016-08-11T23:08:37.010Z,81.06
2016-08-11T23:13:34.816Z,80.62
2016-08-11T23:18:32.660Z,80.81
2016-08-11T23:23:30.279Z,80.77
2016-08-11T23:28:27.907Z,80.77
2016-08-11T23:33:25.604Z,80.91
2016-08-11T23:38:23.196Z,80.96
2016-08-11T23:43:21.021Z,80.71
2016-08-11T23:48:18.936Z,80.68
2016-08-11T23:53:16.610Z,81.25
2016-08-11T23:58:14.261Z,80.87
